Time;durP1;ratioP1;P1;durP2;ratioP2;P2;SDS_P1;SDS_P2;PMS_P1;PMS_P2;Temp;Humidity;BMP_temperature;BMP_pressure;BME280_temperature;BME280_humidity;BME280_pressure;Samples;Min_cycle;Max_cycle;Signal;HPM_P1;HPM_P2
2022/04/02 00:00:17;;;;;;;5.13;2.63;;;0.10;99.90;;;;;;4971924;28;20073;-84
2022/04/02 00:02:44;;;;;;;6.00;3.00;;;0.20;99.90;;;;;;4973245;28;20075;-84
2022/04/02 00:05:11;;;;;;;4.57;2.90;;;0.30;99.90;;;;;;4972843;28;20386;-85
2022/04/02 00:07:37;;;;;;;4.50;2.67;;;0.10;99.90;;;;;;4971981;28;20046;-84
2022/04/02 00:10:05;;;;;;;4.83;2.97;;;0.10;99.90;;;;;;4972977;28;20077;-84
2022/04/02 00:12:31;;;;;;;5.00;2.90;;;0.10;99.90;;;;;;4971633;28;20117;-84
2022/04/02 00:14:57;;;;;;;5.13;2.90;;;0.10;99.90;;;;;;4971831;28;20046;-85
2022/04/02 00:17:23;;;;;;;8.07;3.00;;;0.10;99.90;;;;;;4971399;28;20142;-84
2022/04/02 00:19:48;;;;;;;4.70;2.60;;;0.00;99.90;;;;;;4971501;28;20042;-84
2022/04/02 00:22:14;;;;;;;4.90;2.67;;;0.00;99.90;;;;;;4971637;28;20038;-84
2022/04/02 00:24:41;;;;;;;4.97;3.07;;;0.00;99.90;;;;;;4971322;28;20042;-83
2022/04/02 00:27:07;;;;;;;4.83;2.70;;;0.00;99.90;;;;;;4971582;28;20122;-84
2022/04/02 00:29:34;;;;;;;5.77;2.80;;;0.00;99.90;;;;;;4972104;28;20122;-84
2022/04/02 00:32:00;;;;;;;4.90;2.70;;;-0.10;99.90;;;;;;4972567;28;20437;-84
2022/04/02 00:34:25;;;;;;;3.30;2.70;;;-0.10;99.90;;;;;;4972541;28;20093;-84
2022/04/02 00:36:51;;;;;;;5.37;2.67;;;-0.10;99.90;;;;;;4972889;28;20074;-84
2022/04/02 00:39:17;;;;;;;7.00;2.33;;;-0.10;99.90;;;;;;4972950;28;20043;-83
2022/04/02 00:41:42;;;;;;;4.60;2.47;;;-0.10;99.90;;;;;;4971759;28;20053;-84
2022/04/02 00:44:20;;;;;;;4.47;2.93;;;-0.10;99.90;;;;;;4971659;28;20113;-84
2022/04/02 00:46:47;;;;;;;7.13;2.87;;;-0.10;99.90;;;;;;4971945;28;20057;-84
2022/04/02 00:49:14;;;;;;;4.33;2.60;;;-0.10;99.90;;;;;;4971692;28;20086;-83
2022/04/02 00:51:41;;;;;;;4.87;3.00;;;-0.10;99.90;;;;;;4972056;28;20089;-84
2022/04/02 00:54:16;;;;;;;5.60;2.70;;;0.20;99.90;;;;;;4971430;28;20046;-84
2022/04/02 00:56:42;;;;;;;7.20;2.60;;;-0.20;99.90;;;;;;4970692;28;20047;-84
2022/04/02 00:59:08;;;;;;;4.73;2.50;;;-0.20;99.90;;;;;;4971576;28;20460;-83
2022/04/02 01:01:37;;;;;;;5.37;3.00;;;-0.20;99.90;;;;;;4971445;28;20472;-84
2022/04/02 01:04:04;;;;;;;4.97;2.60;;;-0.20;99.90;;;;;;4972546;28;20108;-84
2022/04/02 01:06:31;;;;;;;4.97;3.03;;;-0.20;99.90;;;;;;4975268;28;20101;-84
2022/04/02 01:08:58;;;;;;;5.30;3.10;;;-0.20;99.90;;;;;;4974380;28;20126;-84
2022/04/02 01:11:34;;;;;;;4.93;2.97;;;-0.20;99.90;;;;;;4975151;28;20077;-84
2022/04/02 01:13:59;;;;;;;4.23;2.60;;;-0.20;99.90;;;;;;4975198;28;20421;-83
2022/04/02 01:16:26;;;;;;;5.43;2.97;;;-0.20;99.90;;;;;;4975497;28;20045;-84
2022/04/02 01:18:52;;;;;;;6.40;3.10;;;-0.20;99.90;;;;;;4974931;28;20051;-84
2022/04/02 01:21:18;;;;;;;6.23;3.03;;;-0.20;99.90;;;;;;4975182;28;20046;-85
2022/04/02 01:23:43;;;;;;;4.87;2.43;;;-0.20;99.90;;;;;;4976153;28;20039;-83
2022/04/02 01:26:09;;;;;;;7.03;2.87;;;-0.30;99.90;;;;;;4976297;28;20038;-84
2022/04/02 01:28:34;;;;;;;4.27;2.87;;;-0.20;99.90;;;;;;4974845;28;20182;-84
2022/04/02 01:31:05;;;;;;;5.93;3.13;;;-0.30;99.90;;;;;;4973478;28;20157;-84
2022/04/02 01:33:31;;;;;;;4.53;2.50;;;-0.40;99.90;;;;;;4973697;28;20129;-84
2022/04/02 01:35:59;;;;;;;5.47;2.50;;;-0.30;99.90;;;;;;4976018;28;20074;-84
2022/04/02 01:38:24;;;;;;;5.47;2.70;;;-0.30;99.90;;;;;;4975109;28;20045;-84
2022/04/02 01:40:50;;;;;;;5.70;2.30;;;-0.40;99.90;;;;;;4976798;28;20039;-84
2022/04/02 01:43:16;;;;;;;4.10;2.30;;;-0.40;99.90;;;;;;4975381;28;20565;-84
2022/04/02 01:45:41;;;;;;;4.83;2.60;;;-0.40;99.90;;;;;;4975458;28;20091;-84
2022/04/02 01:48:07;;;;;;;4.70;2.50;;;-0.40;99.90;;;;;;4975129;28;20077;-84
2022/04/02 01:50:32;;;;;;;6.90;2.87;;;-0.40;99.90;;;;;;4975269;28;20050;-84
2022/04/02 01:52:58;;;;;;;4.77;2.80;;;-0.50;99.90;;;;;;4976384;28;20039;-85
2022/04/02 01:55:24;;;;;;;5.20;2.37;;;-0.50;99.90;;;;;;4974888;28;20493;-84
2022/04/02 01:57:50;;;;;;;5.77;2.67;;;-0.50;99.90;;;;;;4976395;28;20062;-84
2022/04/02 02:00:15;;;;;;;5.40;2.80;;;-0.60;99.90;;;;;;4975923;28;20049;-84
2022/04/02 02:02:41;;;;;;;7.63;2.80;;;-0.60;99.90;;;;;;4975453;28;20093;-83
2022/04/02 02:05:07;;;;;;;5.67;2.83;;;-0.70;99.90;;;;;;4974446;28;20682;-84
2022/04/02 02:07:33;;;;;;;4.73;2.57;;;-0.70;99.90;;;;;;4975579;28;20047;-84
2022/04/02 02:09:58;;;;;;;5.07;2.80;;;-0.70;99.90;;;;;;4975064;28;20093;-84
2022/04/02 02:12:24;;;;;;;5.07;2.37;;;-0.80;99.90;;;;;;4976074;28;20035;-84
2022/04/02 02:14:50;;;;;;;4.80;2.33;;;-0.70;99.90;;;;;;4975105;28;20549;-84
2022/04/02 02:17:16;;;;;;;6.10;2.60;;;-0.80;99.90;;;;;;4974772;28;20085;-84
2022/04/02 02:19:41;;;;;;;8.80;2.30;;;-0.80;99.90;;;;;;4974227;28;20126;-86
2022/04/02 02:22:08;;;;;;;4.17;2.43;;;-0.80;99.90;;;;;;4973440;28;20054;-85
2022/04/02 02:24:33;;;;;;;3.90;2.27;;;-0.50;99.90;;;;;;4973677;28;20216;-85
2022/04/02 02:27:01;;;;;;;4.07;2.30;;;-0.80;99.90;;;;;;4974971;28;20050;-84
2022/04/02 02:29:27;;;;;;;4.63;1.87;;;-0.80;99.90;;;;;;4973491;28;20520;-84
2022/04/02 02:31:53;;;;;;;4.47;2.60;;;-0.80;99.90;;;;;;4973416;28;20046;-84
2022/04/02 02:37:02;;;;;;;;;;;-0.70;99.90;;;;;;4973745;28;20050;-83
2022/04/02 02:39:28;;;;;;;3.23;2.10;;;-0.70;99.90;;;;;;4973231;28;20289;-84
2022/04/02 02:41:53;;;;;;;7.23;2.40;;;-0.70;99.90;;;;;;4973376;28;20122;-84
2022/04/02 02:44:19;;;;;;;5.40;2.20;;;-0.70;99.90;;;;;;4974358;28;20042;-84
2022/04/02 02:46:45;;;;;;;4.70;2.20;;;-0.70;99.90;;;;;;4974323;28;20050;-83
2022/04/02 02:49:10;;;;;;;3.40;2.10;;;-0.70;99.90;;;;;;4973026;28;20476;-84
2022/04/02 02:51:36;;;;;;;4.37;2.37;;;-0.70;99.90;;;;;;4973069;28;20042;-84
2022/04/02 02:54:02;;;;;;;5.07;2.40;;;-0.70;99.90;;;;;;4972556;28;20047;-84
2022/04/02 02:56:27;;;;;;;4.43;2.30;;;-0.80;99.90;;;;;;4972855;28;20043;-83
2022/04/02 02:58:53;;;;;;;5.63;2.33;;;-0.80;99.90;;;;;;4972850;28;20122;-84
2022/04/02 03:01:18;;;;;;;4.70;2.27;;;-0.80;99.90;;;;;;4956672;28;20039;-84
2022/04/02 03:03:44;;;;;;;6.87;2.67;;;-0.90;99.90;;;;;;4972554;28;20485;-83
2022/04/02 03:06:09;;;;;;;4.67;2.63;;;-0.90;99.90;;;;;;4973999;28;20528;-83
2022/04/02 03:08:35;;;;;;;5.40;2.60;;;-1.00;99.90;;;;;;4972577;28;20082;-84
2022/04/02 03:11:00;;;;;;;6.93;3.00;;;-1.00;99.90;;;;;;4972677;28;20043;-83
2022/04/02 03:13:27;;;;;;;6.17;2.90;;;-1.10;99.90;;;;;;4973826;28;20417;-83
2022/04/02 03:15:52;;;;;;;4.50;2.83;;;-1.10;99.90;;;;;;4973596;28;20133;-84
2022/04/02 03:18:18;;;;;;;4.47;2.63;;;-1.20;99.90;;;;;;4972479;28;20078;-84
2022/04/02 03:20:44;;;;;;;4.27;2.90;;;-1.20;99.90;;;;;;4973715;28;20381;-83
2022/04/02 03:23:10;;;;;;;3.90;2.37;;;-1.30;99.90;;;;;;4972520;28;20123;-83
2022/04/02 03:25:36;;;;;;;4.97;2.70;;;-1.30;99.90;;;;;;4973378;28;20085;-84
2022/04/02 03:28:04;;;;;;;7.40;3.13;;;-1.30;99.90;;;;;;4971983;28;20105;-84
2022/04/02 03:30:30;;;;;;;6.57;3.40;;;-1.40;99.90;;;;;;4972264;28;20047;-84
2022/04/02 03:32:56;;;;;;;5.80;2.87;;;-1.40;99.90;;;;;;4972291;28;20101;-84
2022/04/02 03:35:21;;;;;;;6.60;3.47;;;-1.40;99.90;;;;;;4972041;28;20055;-85
2022/04/02 03:37:49;;;;;;;6.90;3.40;;;-1.40;99.90;;;;;;4971990;28;20507;-84
2022/04/02 03:40:17;;;;;;;5.80;2.97;;;-1.40;99.90;;;;;;4973399;28;20397;-84
2022/04/02 03:42:45;;;;;;;6.00;2.90;;;-1.50;99.90;;;;;;4972073;28;20038;-85
2022/04/02 03:45:12;;;;;;;4.30;2.67;;;-1.50;99.90;;;;;;4971820;28;20043;-85
2022/04/02 03:47:38;;;;;;;5.33;2.90;;;-1.50;99.90;;;;;;4973369;28;20132;-85
2022/04/02 03:50:05;;;;;;;7.87;3.10;;;-1.50;99.90;;;;;;4971877;28;20087;-85
2022/04/02 03:52:30;;;;;;;4.17;2.73;;;-1.50;99.90;;;;;;4972175;28;20557;-85
2022/04/02 03:54:56;;;;;;;5.93;2.80;;;-1.60;99.90;;;;;;4973034;28;20181;-86
2022/04/02 03:57:22;;;;;;;6.13;2.37;;;-1.60;99.90;;;;;;4971837;28;20047;-86
2022/04/02 03:59:47;;;;;;;4.70;3.20;;;-1.60;99.90;;;;;;4971985;28;20125;-86
2022/04/02 04:02:13;;;;;;;4.43;2.70;;;-1.70;99.90;;;;;;4971992;28;20600;-86
2022/04/02 04:04:39;;;;;;;6.47;2.77;;;-1.70;99.90;;;;;;4972137;28;20428;-86
2022/04/02 04:07:06;;;;;;;4.87;2.90;;;-1.70;99.90;;;;;;4971916;28;20501;-86
2022/04/02 04:09:32;;;;;;;5.13;2.50;;;-1.70;99.90;;;;;;4973187;28;20042;-86
2022/04/02 04:11:58;;;;;;;4.30;2.97;;;-1.70;99.90;;;;;;4972272;28;20058;-85
2022/04/02 04:14:24;;;;;;;7.03;2.97;;;-1.70;99.90;;;;;;4970580;28;20085;-85
2022/04/02 04:16:51;;;;;;;7.03;2.80;;;-1.70;99.90;;;;;;4971531;28;20533;-86
2022/04/02 04:19:17;;;;;;;3.90;2.23;;;-1.70;99.90;;;;;;4971995;28;20408;-86
2022/04/02 04:21:43;;;;;;;6.43;2.13;;;-1.70;99.90;;;;;;4973034;28;20042;-86
2022/04/02 04:24:10;;;;;;;4.80;2.20;;;-1.70;99.90;;;;;;4971786;28;20099;-86
2022/04/02 04:26:36;;;;;;;3.33;1.83;;;-1.60;99.90;;;;;;4971821;28;20086;-86
2022/04/02 04:29:02;;;;;;;5.53;2.27;;;-1.60;99.90;;;;;;4972833;28;20035;-87
2022/04/02 04:31:28;;;;;;;3.17;1.90;;;-1.60;99.90;;;;;;4971698;28;20045;-86
2022/04/02 04:33:54;;;;;;;4.17;1.90;;;-1.60;99.90;;;;;;4971339;28;20034;-86
2022/04/02 04:36:20;;;;;;;4.37;2.00;;;-1.40;99.90;;;;;;4972893;28;20086;-85
2022/04/02 04:38:46;;;;;;;3.57;1.90;;;-1.60;99.90;;;;;;4971469;28;20043;-86
2022/04/02 04:41:13;;;;;;;5.80;2.57;;;-1.60;99.90;;;;;;4974085;28;20118;-86
2022/04/02 04:43:41;;;;;;;5.03;2.10;;;-1.70;99.90;;;;;;4976686;28;20039;-86
2022/04/02 04:46:07;;;;;;;4.10;1.60;;;-1.60;99.90;;;;;;4976571;28;20162;-86
2022/04/02 04:48:35;;;;;;;9.57;2.33;;;-1.60;99.90;;;;;;4975249;28;20145;-86
2022/04/02 04:51:01;;;;;;;3.43;1.60;;;-1.70;99.90;;;;;;4969632;28;20047;-86
2022/04/02 04:53:27;;;;;;;3.40;1.70;;;-1.60;99.90;;;;;;4956800;28;20546;-86
2022/04/02 04:55:52;;;;;;;5.37;1.77;;;-1.40;99.90;;;;;;4956027;28;20043;-87
2022/04/02 04:58:18;;;;;;;6.03;1.93;;;-1.40;99.90;;;;;;4956169;29;20075;-86
2022/04/02 05:00:43;;;;;;;6.23;2.07;;;-0.50;99.90;;;;;;4955922;28;20047;-85
2022/04/02 05:03:10;;;;;;;4.17;1.70;;;-0.90;99.90;;;;;;4956432;29;20098;-86
2022/04/02 05:05:38;;;;;;;2.53;1.63;;;-0.80;99.90;;;;;;4955338;28;20513;-86
2022/04/02 05:08:05;;;;;;;3.50;2.10;;;-0.70;99.90;;;;;;4956542;28;20046;-86
2022/04/02 05:10:30;;;;;;;4.13;2.50;;;-0.50;99.90;;;;;;4955843;29;20035;-86
2022/04/02 05:12:56;;;;;;;6.77;2.60;;;-0.40;99.90;;;;;;4956013;28;20074;-86
2022/04/02 05:15:22;;;;;;;5.07;2.20;;;-0.30;99.90;;;;;;4955688;29;20054;-86
2022/04/02 05:17:47;;;;;;;4.40;2.30;;;-0.10;99.90;;;;;;4954717;28;20506;-86
2022/04/02 05:20:17;;;;;;;5.00;2.90;;;0.10;99.90;;;;;;4955197;28;20039;-85
2022/04/02 05:22:44;;;;;;;5.87;2.70;;;0.20;99.90;;;;;;4960517;28;20117;-85
2022/04/02 05:25:10;;;;;;;7.03;2.50;;;0.20;99.90;;;;;;4975292;28;20035;-86
2022/04/02 05:27:37;;;;;;;3.93;2.60;;;0.30;99.90;;;;;;4974449;28;20061;-86
2022/04/02 05:30:04;;;;;;;5.00;2.60;;;0.20;99.90;;;;;;4975503;28;20089;-86
2022/04/02 05:32:30;;;;;;;5.00;2.43;;;0.20;99.90;;;;;;4973810;28;20031;-87
2022/04/02 05:34:59;;;;;;;5.73;2.50;;;0.20;99.90;;;;;;4975917;28;20477;-87
2022/04/02 05:37:25;;;;;;;4.37;2.20;;;0.20;99.90;;;;;;4975930;28;20043;-86
2022/04/02 05:39:51;;;;;;;6.30;2.50;;;0.20;99.90;;;;;;4974915;28;20453;-87
2022/04/02 05:42:17;;;;;;;4.77;2.27;;;0.20;99.90;;;;;;4974566;28;20046;-87
2022/04/02 05:44:43;;;;;;;4.47;2.53;;;0.30;99.90;;;;;;4974309;28;20497;-87
2022/04/02 05:47:12;;;;;;;5.03;2.47;;;0.20;99.90;;;;;;4973774;28;20138;-85
2022/04/02 05:49:37;;;;;;;6.30;2.50;;;0.30;99.90;;;;;;4973304;28;20042;-87
2022/04/02 05:52:04;;;;;;;5.50;2.50;;;0.30;99.90;;;;;;4973165;28;20046;-86
2022/04/02 05:54:30;;;;;;;4.63;2.60;;;0.40;99.90;;;;;;4975304;28;20058;-87
2022/04/02 05:56:56;;;;;;;4.37;2.67;;;0.50;99.90;;;;;;4974442;28;20054;-86
2022/04/02 05:59:22;;;;;;;5.60;2.63;;;0.50;99.90;;;;;;4975345;28;20043;-86
2022/04/02 06:01:48;;;;;;;437.13;144.30;;;0.60;99.90;;;;;;4975262;28;20449;-87
2022/04/02 06:04:14;;;;;;;382.63;140.60;;;0.70;99.90;;;;;;4973977;28;20045;-86
2022/04/02 06:06:40;;;;;;;312.63;133.27;;;1.20;99.90;;;;;;4974921;28;20458;-86
2022/04/02 06:09:05;;;;;;;72.43;38.03;;;0.70;99.90;;;;;;4974981;28;20074;-85
2022/04/02 06:11:31;;;;;;;31.33;15.20;;;0.80;99.90;;;;;;4972390;28;20039;-85
2022/04/02 06:13:57;;;;;;;17.33;9.13;;;0.80;99.90;;;;;;4974676;28;20408;-86
2022/04/02 06:16:23;;;;;;;13.63;6.70;;;0.90;99.90;;;;;;4973490;28;20050;-87
2022/04/02 06:18:49;;;;;;;10.40;5.63;;;0.80;99.90;;;;;;4973834;28;20130;-86
2022/04/02 06:21:15;;;;;;;8.53;4.23;;;0.90;99.90;;;;;;4973590;28;20047;-86
2022/04/02 06:23:42;;;;;;;6.93;4.03;;;0.90;99.90;;;;;;4965151;28;20039;-86
2022/04/02 06:26:08;;;;;;;7.33;3.27;;;1.30;99.90;;;;;;4955277;28;20047;-86
2022/04/02 06:28:34;;;;;;;6.97;2.90;;;1.00;99.90;;;;;;4938070;28;20039;-86
2022/04/02 06:31:00;;;;;;;6.47;2.73;;;1.10;99.90;;;;;;4955629;28;20178;-87
2022/04/02 06:33:26;;;;;;;4.63;2.90;;;1.10;99.90;;;;;;4955548;28;20082;-87
2022/04/02 06:35:52;;;;;;;4.27;2.20;;;1.20;99.90;;;;;;4953923;29;20049;-85
2022/04/02 06:38:17;;;;;;;4.30;2.60;;;1.30;99.90;;;;;;4954312;29;20137;-85
2022/04/02 06:40:43;;;;;;;4.73;2.07;;;1.30;99.90;;;;;;4955185;28;20064;-82
2022/04/02 06:43:09;;;;;;;5.23;2.00;;;1.30;99.90;;;;;;4937014;28;20047;-83
2022/04/02 06:45:35;;;;;;;4.17;1.87;;;1.70;99.90;;;;;;4954548;28;20043;-82
2022/04/02 06:48:01;;;;;;;6.53;2.20;;;1.40;99.90;;;;;;4954110;29;20075;-82
2022/04/02 06:50:27;;;;;;;4.67;2.50;;;1.50;99.90;;;;;;4955426;28;20035;-83
2022/04/02 06:52:53;;;;;;;4.17;2.20;;;1.50;99.90;;;;;;4954790;28;20039;-82
2022/04/02 06:55:19;;;;;;;3.47;2.10;;;1.60;99.90;;;;;;4953676;29;20054;-81
2022/04/02 06:57:51;;;;;;;4.77;2.37;;;1.70;99.90;;;;;;4953318;28;20047;-84
2022/04/02 07:00:17;;;;;;;3.63;1.90;;;1.80;99.90;;;;;;4957389;28;20035;-85
2022/04/02 07:02:43;;;;;;;3.03;2.00;;;2.00;99.90;;;;;;4958522;28;20090;-86
2022/04/02 07:05:08;;;;;;;3.73;1.80;;;2.70;99.90;;;;;;4954020;28;20050;-87
2022/04/02 07:07:34;;;;;;;4.53;1.90;;;2.20;99.90;;;;;;4953664;28;20087;-88
2022/04/02 07:10:00;;;;;;;3.67;2.10;;;2.80;99.90;;;;;;4959057;28;20041;-87
2022/04/02 07:12:26;;;;;;;3.77;1.97;;;2.20;99.90;;;;;;4962161;28;20409;-87
2022/04/02 07:14:52;;;;;;;4.30;1.90;;;2.30;99.90;;;;;;4953422;28;20050;-87
2022/04/02 07:17:17;;;;;;;3.93;1.97;;;2.30;99.90;;;;;;4953362;29;20055;-88
2022/04/02 07:19:45;;;;;;;4.47;2.03;;;2.30;99.90;;;;;;4966391;28;20109;-88
2022/04/02 07:22:11;;;;;;;3.70;2.20;;;2.20;99.90;;;;;;4972234;28;20043;-88
2022/04/02 07:24:40;;;;;;;4.57;2.43;;;2.10;99.90;;;;;;4973765;28;20046;-88
2022/04/02 07:27:07;;;;;;;5.03;2.20;;;2.50;99.90;;;;;;4970974;28;20105;-87
2022/04/02 07:29:34;;;;;;;5.20;2.00;;;2.60;99.90;;;;;;4972971;28;20086;-88
2022/04/02 07:32:00;;;;;;;4.73;2.20;;;2.00;99.90;;;;;;4972309;28;20520;-88
2022/04/02 07:34:26;;;;;;;4.23;2.20;;;2.40;99.90;;;;;;4972406;28;20078;-88
2022/04/02 07:37:05;;;;;;;4.13;2.00;;;2.00;99.90;;;;;;4972579;28;20109;-88
2022/04/02 07:39:53;;;;;;;4.50;2.10;;;2.00;99.90;;;;;;4973572;28;20097;-89
2022/04/02 07:42:26;;;;;;;3.27;1.90;;;1.90;99.90;;;;;;4972401;28;20150;-89
2022/04/02 07:45:05;;;;;;;7.63;2.00;;;1.90;99.90;;;;;;4972787;28;20057;-88
2022/04/02 07:47:34;;;;;;;3.27;1.90;;;1.90;99.90;;;;;;4972182;28;20061;-87
2022/04/02 07:50:04;;;;;;;5.00;2.00;;;2.30;99.90;;;;;;4953660;28;20050;-87
2022/04/02 07:52:29;;;;;;;2.30;1.60;;;2.10;99.90;;;;;;4936920;29;20087;-87
2022/04/02 07:54:57;;;;;;;3.90;2.27;;;2.50;99.90;;;;;;4952551;28;20145;-87
2022/04/02 07:57:52;;;;;;;3.53;1.83;;;2.20;99.90;;;;;;4936676;29;20450;-87
2022/04/02 08:00:26;;;;;;;4.00;1.90;;;2.40;99.90;;;;;;4954325;28;20055;-86
2022/04/02 08:02:51;;;;;;;4.80;1.65;;;2.50;99.90;;;;;;4953103;29;20039;-86
2022/04/02 08:05:20;;;;;;;3.37;1.83;;;2.90;99.90;;;;;;4952639;28;20560;-86
2022/04/02 08:07:52;;;;;;;4.20;2.50;;;3.00;99.90;;;;;;4951479;29;20122;-85
2022/04/02 08:10:19;;;;;;;2.67;1.60;;;3.30;99.90;;;;;;4953798;28;20524;-86
2022/04/02 08:12:45;;;;;;;3.27;1.57;;;3.70;99.90;;;;;;4961656;28;20051;-85
2022/04/02 08:15:16;;;;;;;3.20;1.90;;;4.00;99.90;;;;;;4961918;28;20046;-85
2022/04/02 08:17:43;;;;;;;5.80;1.50;;;4.00;99.90;;;;;;4952188;28;20556;-85
2022/04/02 08:20:10;;;;;;;3.40;2.05;;;4.40;99.90;;;;;;4971042;28;20046;-85
2022/04/02 08:22:36;;;;;;;3.55;1.77;;;4.60;99.90;;;;;;4971507;28;20043;-84
2022/04/02 08:25:02;;;;;;;3.95;1.60;;;4.80;99.90;;;;;;4972403;28;20034;-85
2022/04/02 08:27:55;;;;;;;2.85;1.40;;;4.90;99.90;;;;;;4971708;28;20105;-85
2022/04/02 08:30:47;;;;;;;6.20;1.38;;;5.10;99.90;;;;;;4971082;28;20505;-85
2022/04/02 08:33:42;;;;;;;2.15;1.20;;;5.20;99.90;;;;;;4955537;28;20058;-85
2022/04/02 08:36:33;;;;;;;5.53;1.63;;;5.40;99.90;;;;;;4971236;28;20130;-85
2022/04/02 08:39:14;;;;;;;5.00;1.40;;;5.30;99.90;;;;;;4971198;28;20501;-85
2022/04/02 08:42:03;;;;;;;4.13;1.48;;;5.30;99.90;;;;;;4966985;28;20050;-85
2022/04/02 08:44:46;;;;;;;3.55;1.55;;;5.30;99.90;;;;;;4972353;28;20061;-84
2022/04/02 08:47:27;;;;;;;2.63;1.60;;;5.60;99.90;;;;;;4971360;28;20050;-85
2022/04/02 08:49:53;;;;;;;4.03;1.45;;;5.70;99.90;;;;;;4971529;28;20138;-85
2022/04/02 08:52:21;;;;;;;2.30;1.40;;;5.80;99.90;;;;;;4972446;28;20118;-84
2022/04/02 08:55:09;;;;;;;5.35;1.30;;;6.00;99.90;;;;;;4971180;28;20042;-84
2022/04/02 08:57:52;;;;;;;3.17;1.50;;;6.10;99.90;;;;;;4972605;28;20051;-83
2022/04/02 09:00:23;;;;;;;3.80;1.42;;;6.30;99.90;;;;;;4971253;28;20046;-85
2022/04/02 09:02:54;;;;;;;4.28;1.35;;;6.30;99.90;;;;;;4971255;28;20471;-84
2022/04/02 09:05:32;;;;;;;2.95;1.33;;;6.40;99.90;;;;;;4972312;28;20054;-84
2022/04/02 09:08:23;;;;;;;6.40;1.40;;;6.50;99.90;;;;;;4970735;28;20567;-85
2022/04/02 09:11:18;;;;;;;4.95;1.30;;;6.60;99.90;;;;;;4971394;28;20082;-84
2022/04/02 09:14:11;;;;;;;1.90;1.27;;;6.70;99.90;;;;;;4978045;28;20110;-85
2022/04/02 09:17:03;;;;;;;3.58;1.30;;;6.70;99.90;;;;;;4972756;28;20066;-84
2022/04/02 09:19:58;;;;;;;4.90;1.48;;;6.80;99.90;;;;;;4972087;28;20050;-84
2022/04/02 09:22:31;;;;;;;5.32;1.77;;;6.80;99.90;;;;;;4972199;28;20070;-85
2022/04/02 09:25:17;;;;;;;4.65;1.40;;;6.60;99.90;;;;;;4972200;28;20557;-84
2022/04/02 09:28:09;;;;;;;4.35;1.42;;;6.40;99.90;;;;;;4973968;28;20050;-84
2022/04/02 09:31:16;;;;;;;3.63;1.40;;;6.20;99.90;;;;;;4976196;28;20049;-84
2022/04/02 09:34:00;;;;;;;4.97;1.50;;;6.20;99.90;;;;;;4977066;28;20105;-83
2022/04/02 09:36:59;;;;;;;3.00;1.40;;;6.30;99.90;;;;;;4974001;28;20055;-83
2022/04/02 09:39:49;;;;;;;3.25;1.20;;;6.20;99.90;;;;;;4975937;28;20562;-83
2022/04/02 09:42:32;;;;;;;2.20;1.30;;;5.80;99.90;;;;;;4977880;28;20129;-83
2022/04/02 09:45:12;;;;;;;3.53;1.35;;;5.70;99.90;;;;;;4976961;28;20051;-83
2022/04/02 09:47:44;;;;;;;2.63;1.27;;;5.60;99.90;;;;;;4976275;28;20050;-83
2022/04/02 09:50:15;;;;;;;2.22;1.17;;;5.70;99.90;;;;;;4975029;28;20101;-84
2022/04/02 09:52:46;;;;;;;3.22;1.17;;;5.70;99.90;;;;;;4976254;28;20402;-83
2022/04/02 09:55:20;;;;;;;2.08;1.30;;;5.70;99.90;;;;;;4974611;28;20401;-84
2022/04/02 09:57:53;;;;;;;4.55;1.35;;;5.60;99.90;;;;;;4975400;28;20055;-84
2022/04/02 10:00:20;;;;;;;4.20;1.35;;;5.70;99.90;;;;;;4974872;28;20070;-83
2022/04/02 10:03:05;;;;;;;3.17;1.55;;;5.60;99.90;;;;;;4975052;28;20568;-83
2022/04/02 10:05:44;;;;;;;4.15;1.35;;;5.50;99.90;;;;;;4974725;28;20042;-83
2022/04/02 10:08:29;;;;;;;4.60;1.50;;;5.40;99.90;;;;;;4976868;28;20046;-83
2022/04/02 10:11:00;;;;;;;2.60;1.38;;;5.30;99.90;;;;;;4954944;28;20059;-83
2022/04/02 10:13:30;;;;;;;3.53;1.38;;;5.30;99.90;;;;;;4974577;28;20050;-83
2022/04/02 10:15:58;;;;;;;3.15;1.27;;;5.30;99.90;;;;;;4975250;28;20047;-83
2022/04/02 10:18:25;;;;;;;3.05;1.60;;;5.40;99.90;;;;;;4975117;28;20079;-84
2022/04/02 10:20:52;;;;;;;4.63;1.50;;;5.50;99.90;;;;;;4976173;28;20496;-84
2022/04/02 10:23:29;;;;;;;2.40;1.30;;;5.50;99.90;;;;;;4975815;28;20039;-84
2022/04/02 10:26:15;;;;;;;6.50;1.45;;;5.50;99.90;;;;;;4976035;28;20046;-83
2022/04/02 10:28:51;;;;;;;2.75;1.30;;;5.50;99.90;;;;;;4974914;28;20058;-83
2022/04/02 10:31:37;;;;;;;3.72;1.38;;;5.50;99.90;;;;;;4974508;28;20047;-83
2022/04/02 10:34:25;;;;;;;3.95;1.40;;;5.30;99.90;;;;;;4974398;28;20106;-84
2022/04/02 10:36:55;;;;;;;2.80;1.27;;;5.30;99.90;;;;;;4975246;28;20046;-84
2022/04/02 10:39:24;;;;;;;4.30;1.40;;;5.40;99.90;;;;;;4974757;28;20046;-83
2022/04/02 10:42:05;;;;;;;2.75;1.35;;;5.60;99.90;;;;;;4974171;28;20058;-83
2022/04/02 10:44:44;;;;;;;2.78;1.50;;;5.80;99.90;;;;;;4974741;28;20039;-85
2022/04/02 10:47:12;;;;;;;4.30;1.40;;;5.90;99.90;;;;;;4990620;28;20498;-84
2022/04/02 10:49:40;;;;;;;4.32;1.85;;;6.10;99.90;;;;;;4974881;28;20400;-83
2022/04/02 10:52:11;;;;;;;3.17;1.60;;;6.30;99.90;;;;;;4973901;28;20317;-83
2022/04/02 10:54:39;;;;;;;3.15;1.35;;;6.50;99.90;;;;;;4974752;28;20038;-84
2022/04/02 10:57:05;;;;;;;2.25;1.23;;;6.50;99.90;;;;;;4973640;28;20538;-84
2022/04/02 10:59:32;;;;;;;3.92;1.48;;;6.60;99.90;;;;;;4973729;28;20047;-83
2022/04/02 11:02:02;;;;;;;4.05;1.30;;;6.60;99.90;;;;;;4976548;28;20043;-83
2022/04/02 11:04:36;;;;;;;1.80;1.13;;;6.60;99.90;;;;;;4975370;28;20039;-84
2022/04/02 11:07:02;;;;;;;2.55;1.20;;;6.40;99.90;;;;;;4974267;28;20057;-83
2022/04/02 11:09:33;;;;;;;4.22;1.10;;;6.40;99.90;;;;;;4975373;28;20026;-84
2022/04/02 11:12:15;;;;;;;2.80;1.40;;;6.80;99.90;;;;;;4973971;28;20058;-84
2022/04/02 11:14:43;;;;;;;3.13;1.25;;;7.20;99.30;;;;;;4973301;28;20051;-83
2022/04/02 11:17:24;;;;;;;3.03;1.45;;;7.60;98.40;;;;;;4972921;28;20094;-84
2022/04/02 11:19:56;;;;;;;5.30;1.25;;;8.00;98.40;;;;;;4972982;28;20085;-84
2022/04/02 11:22:30;;;;;;;5.00;1.45;;;8.20;97.90;;;;;;4973882;28;20413;-79
2022/04/02 11:25:10;;;;;;;3.30;1.70;;;7.80;97.80;;;;;;4972556;28;20094;-85
2022/04/02 11:27:38;;;;;;;2.60;1.25;;;7.40;97.60;;;;;;4972486;28;20065;-84
2022/04/02 11:30:09;;;;;;;2.63;1.50;;;7.20;98.40;;;;;;4973755;28;20086;-83
2022/04/02 11:32:38;;;;;;;5.57;1.42;;;6.90;98.40;;;;;;4987267;28;20178;-83
2022/04/02 11:35:07;;;;;;;2.15;1.30;;;6.80;98.40;;;;;;4972469;28;20106;-83
2022/04/02 11:37:44;;;;;;;3.00;1.40;;;6.60;96.50;;;;;;4972239;28;20043;-84
2022/04/02 11:40:14;;;;;;;2.45;1.35;;;6.50;98.20;;;;;;4970822;28;20047;-84
2022/04/02 11:42:46;;;;;;;4.28;1.30;;;7.00;99.10;;;;;;4968992;28;20058;-83
2022/04/02 11:45:19;;;;;;;2.83;1.20;;;7.60;98.60;;;;;;4973846;28;20039;-83
2022/04/02 11:47:50;;;;;;;4.38;1.27;;;8.10;97.30;;;;;;4974080;28;20092;-84
2022/04/02 11:50:27;;;;;;;3.78;1.52;;;8.50;97.20;;;;;;4973498;28;20038;-84
2022/04/02 11:52:58;;;;;;;3.53;1.48;;;8.40;96.00;;;;;;4972686;28;20043;-84
2022/04/02 11:55:25;;;;;;;4.28;1.30;;;8.00;95.30;;;;;;4971989;28;20038;-84
2022/04/02 11:58:03;;;;;;;5.10;1.40;;;7.50;95.40;;;;;;4971630;28;20057;-83
2022/04/02 12:00:30;;;;;;;3.83;1.50;;;7.30;96.60;;;;;;4971840;28;20057;-84
2022/04/02 12:02:56;;;;;;;3.28;1.38;;;7.10;96.90;;;;;;4971723;28;20046;-85
2022/04/02 12:05:34;;;;;;;3.08;1.30;;;7.00;98.00;;;;;;4961405;28;20166;-84
2022/04/02 12:08:01;;;;;;;5.82;1.60;;;6.80;98.90;;;;;;4971799;28;20132;-84
2022/04/02 12:10:27;;;;;;;4.13;1.75;;;6.70;99.70;;;;;;4959338;28;20458;-84
2022/04/02 12:12:55;;;;;;;5.07;1.50;;;6.70;99.90;;;;;;4952925;28;20079;-84
2022/04/02 12:15:21;;;;;;;3.65;1.40;;;6.90;99.90;;;;;;4963437;28;20049;-83
2022/04/02 12:17:50;;;;;;;5.15;1.52;;;7.30;99.90;;;;;;4971839;28;20070;-83
2022/04/02 12:20:27;;;;;;;3.75;1.38;;;7.70;99.90;;;;;;4971684;28;20509;-84
2022/04/02 12:23:07;;;;;;;5.68;2.40;;;8.00;99.90;;;;;;4971700;28;20047;-84
2022/04/02 12:25:34;;;;;;;4.03;1.50;;;8.20;99.70;;;;;;4971618;28;20046;-83
2022/04/02 12:28:07;;;;;;;5.88;1.40;;;8.10;98.90;;;;;;4972151;28;20402;-84
2022/04/02 12:30:35;;;;;;;3.50;1.35;;;8.00;99.00;;;;;;4971914;28;20113;-84
2022/04/02 12:33:07;;;;;;;3.00;1.23;;;8.00;97.30;;;;;;4971814;28;20070;-85
2022/04/02 12:35:33;;;;;;;1.92;1.15;;;7.70;97.40;;;;;;4959004;28;20050;-84
2022/04/02 12:38:03;;;;;;;2.15;1.27;;;7.30;96.60;;;;;;4951286;28;20070;-84
2022/04/02 12:40:32;;;;;;;3.72;1.40;;;7.30;97.30;;;;;;4951845;28;20039;-84
2022/04/02 12:43:06;;;;;;;2.38;1.20;;;7.30;97.50;;;;;;4951487;28;20058;-84
2022/04/02 12:45:33;;;;;;;4.63;1.38;;;7.40;97.40;;;;;;4951015;28;20046;-84
2022/04/02 12:48:03;;;;;;;4.00;1.52;;;7.60;97.30;;;;;;4951210;28;20051;-83
2022/04/02 12:50:49;;;;;;;5.57;1.35;;;7.90;97.10;;;;;;4952246;28;20039;-84
2022/04/02 12:53:35;;;;;;;3.05;1.30;;;7.90;96.90;;;;;;4966694;28;20043;-85
2022/04/02 12:56:06;;;;;;;4.03;1.70;;;7.80;95.50;;;;;;4953797;28;20042;-84
2022/04/02 12:58:37;;;;;;;3.92;1.52;;;7.80;96.20;;;;;;4953503;28;20130;-84
2022/04/02 13:01:28;;;;;;;4.40;1.25;;;7.50;95.80;;;;;;4952224;28;20114;-84
2022/04/02 13:04:09;;;;;;;2.75;1.38;;;7.60;96.20;;;;;;4953341;28;20513;-84
2022/04/02 13:06:46;;;;;;;2.80;1.35;;;7.60;97.30;;;;;;4956798;28;20118;-85
2022/04/02 13:09:29;;;;;;;2.83;1.25;;;8.40;97.20;;;;;;4955632;28;20095;-85